Terminal Aerodrome Forecast
Issued by NWS

Home | Current Version | Previous Version | Text Only | Print | Product List | Glossary On
Versions: 1 2 3 4 5 6 7 8 9 10 11 12 13 14 15
000
FTUS41 KGYX 262320
TAFPSM
TAF
KPSM 262320Z 2700/2724 35002KT 1/2SM -RA FG SCT002 OVC008
      TEMPO 2700/2704 4SM BR OVC020
     FM270700 34006KT 5SM BR OVC019 PROB30 2709/2711 4SM -RA BR
      OVC015
     FM271200 36004KT P6SM OVC019
     FM271800 03004KT P6SM OVC015=

USA.gov is the U.S. government's official web portal to all federal, state and local government web resources and services.